Time;durP1;ratioP1;P1;durP2;ratioP2;P2;SDS_P1;SDS_P2;PMS_P1;PMS_P2;Temp;Humidity;BMP_temperature;BMP_pressure;BME280_temperature;BME280_humidity;BME280_pressure;Samples;Min_cycle;Max_cycle;Signal;HPM_P1;HPM_P2
2021/07/17 00:00:12;;;;;;;31.80;16.05;;;;;;;20.29;75.37;100293.33;125823;1092;23408;-57
2021/07/17 00:03:05;;;;;;;32.03;16.33;;;;;;;20.27;75.84;100287.45;125872;1093;22828;-57
2021/07/17 00:05:37;;;;;;;32.65;17.65;;;;;;;20.26;75.72;100290.83;126059;1092;22782;-59
2021/07/17 00:08:09;;;;;;;30.98;16.28;;;;;;;20.26;75.80;100293.67;125938;1093;22780;-57
2021/07/17 00:10:44;;;;;;;32.83;16.20;;;;;;;20.25;75.54;100294.97;125884;1093;26300;-56
2021/07/17 00:13:17;;;;;;;26.73;16.60;;;;;;;20.24;76.18;100294.19;125994;1093;25909;-55
2021/07/17 00:15:51;;;;;;;33.38;16.18;;;;;;;20.21;75.86;100286.02;126028;1091;22780;-59
2021/07/17 00:18:24;;;;;;;45.30;18.05;;;;;;;20.20;76.28;100285.25;125921;1093;25689;-56
2021/07/17 00:20:55;;;;;;;35.70;15.43;;;;;;;20.14;76.24;100278.91;125974;1092;22828;-57
2021/07/17 00:23:26;;;;;;;30.23;16.27;;;;;;;20.09;76.45;100271.28;125946;1093;22806;-58
2021/07/17 00:25:58;;;;;;;36.23;15.68;;;;;;;20.03;76.37;100271.38;125836;1092;22777;-56
2021/07/17 00:28:30;;;;;;;28.38;15.83;;;;;;;19.95;76.70;100264.83;125780;1093;28075;-58
2021/07/17 00:31:02;;;;;;;30.65;15.65;;;;;;;19.90;76.52;100267.78;125919;1092;25483;-57
2021/07/17 00:33:33;;;;;;;29.53;18.05;;;;;;;19.85;77.02;100268.63;125987;1093;23255;-58
2021/07/17 00:36:06;;;;;;;26.70;15.40;;;;;;;19.76;77.29;100266.23;125849;1093;25880;-58
2021/07/17 00:38:38;;;;;;;29.80;16.33;;;;;;;19.74;76.88;100272.42;125919;1093;22770;-58
2021/07/17 00:41:10;;;;;;;28.43;16.28;;;;;;;19.74;77.03;100274.52;125858;1092;25883;-57
2021/07/17 00:43:42;;;;;;;30.28;18.70;;;;;;;19.72;77.78;100279.95;125908;1093;22857;-58
2021/07/17 00:46:13;;;;;;;36.23;18.43;;;;;;;19.66;77.73;100273.60;125961;1093;22771;-58
2021/07/17 00:48:45;;;;;;;34.30;17.20;;;;;;;19.60;77.82;100276.54;125972;1093;22848;-57
2021/07/17 00:51:19;;;;;;;28.53;15.28;;;;;;;19.56;78.08;100275.32;125967;1093;25964;-58
2021/07/17 00:53:51;;;;;;;25.83;16.83;;;;;;;19.52;78.40;100272.05;125896;1093;22921;-57
2021/07/17 00:56:25;;;;;;;26.58;16.98;;;;;;;19.50;78.57;100266.16;126272;1093;22840;-56
2021/07/17 00:59:01;;;;;;;32.50;18.10;;;;;;;19.47;78.92;100265.17;125912;1093;22800;-56
2021/07/17 01:01:34;;;;;;;29.25;16.80;;;;;;;19.42;78.94;100263.21;125882;1093;22774;-58
2021/07/17 01:04:07;;;;;;;28.83;17.75;;;;;;;19.37;79.30;100263.31;125969;1093;25877;-60
2021/07/17 01:06:38;;;;;;;25.67;15.97;;;;;;;19.31;80.05;100269.02;125886;1092;22807;-56
2021/07/17 01:09:10;;;;;;;28.57;16.50;;;;;;;19.26;79.83;100269.88;125908;1093;22770;-57
2021/07/17 01:11:41;;;;;;;27.70;15.85;;;;;;;19.23;80.02;100268.89;125873;1093;22797;-57
2021/07/17 01:14:15;;;;;;;29.75;16.38;;;;;;;19.20;79.96;100264.30;125983;1093;25880;-59
2021/07/17 01:16:50;;;;;;;33.07;15.90;;;;;;;19.19;80.33;100267.66;125952;1093;22974;-58
2021/07/17 01:19:25;;;;;;;29.15;16.90;;;;;;;19.18;80.06;100278.22;125882;1093;25989;-57
2021/07/17 01:21:57;;;;;;;28.18;16.20;;;;;;;19.18;80.19;100283.88;125874;1093;26442;-58
2021/07/17 01:24:29;;;;;;;30.10;15.10;;;;;;;19.19;80.35;100270.50;126185;1092;23752;-57
2021/07/17 01:27:01;;;;;;;28.40;15.97;;;;;;;19.16;80.40;100268.76;126035;1093;22770;-60
2021/07/17 01:29:34;;;;;;;29.60;14.80;;;;;;;19.14;80.31;100274.19;126068;1093;22779;-57
2021/07/17 01:32:08;;;;;;;29.63;15.90;;;;;;;19.18;80.16;100274.64;125850;1092;22797;-54
2021/07/17 01:34:41;;;;;;;30.33;16.13;;;;;;;19.19;80.18;100276.16;126009;1093;22794;-60
2021/07/17 01:37:12;;;;;;;26.88;15.18;;;;;;;19.21;80.08;100267.89;125909;1093;25878;-55
2021/07/17 01:39:44;;;;;;;30.80;15.20;;;;;;;19.23;80.19;100270.95;125871;1093;22781;-57
2021/07/17 01:42:19;;;;;;;26.18;14.80;;;;;;;19.25;79.90;100268.34;125829;1093;27676;-59
2021/07/17 01:44:51;;;;;;;31.20;15.77;;;;;;;19.24;80.12;100266.83;125884;1093;26296;-56
2021/07/17 01:47:24;;;;;;;30.30;15.65;;;;;;;19.24;80.01;100264.00;125834;1093;22834;-57
2021/07/17 01:49:58;;;;;;;26.15;14.28;;;;;;;19.24;79.74;100261.91;125903;1093;22773;-58
2021/07/17 01:52:29;;;;;;;26.98;13.93;;;;;;;19.26;79.52;100261.39;125900;1093;24364;-54
2021/07/17 01:55:00;;;;;;;29.50;14.03;;;;;;;19.26;79.69;100252.90;125832;1093;27285;-58
2021/07/17 01:57:32;;;;;;;23.33;13.20;;;;;;;19.25;79.69;100265.51;125872;1093;22774;-58
2021/07/17 02:00:05;;;;;;;26.45;14.68;;;;;;;19.23;79.43;100249.08;125817;1093;24439;-58
2021/07/17 02:02:39;;;;;;;28.67;14.60;;;;;;;19.22;79.46;100263.77;126148;1092;22801;-57
2021/07/17 02:05:12;;;;;;;24.03;13.55;;;;;;;19.20;79.46;100261.46;125959;1093;25970;-56
2021/07/17 02:07:46;;;;;;;22.33;12.95;;;;;;;19.19;78.98;100265.61;125973;1093;22803;-59
2021/07/17 02:10:19;;;;;;;25.15;12.10;;;;;;;19.16;79.23;100261.01;125910;1093;24480;-56
2021/07/17 02:13:02;;;;;;;25.20;14.88;;;;;;;19.15;80.05;100272.88;125976;1093;26248;-56
2021/07/17 02:15:36;;;;;;;28.08;14.98;;;;;;;19.11;80.03;100267.53;125976;1093;22773;-55
2021/07/17 02:18:09;;;;;;;27.75;15.60;;;;;;;19.11;79.85;100261.11;125810;1093;22846;-55
2021/07/17 02:20:42;;;;;;;28.53;15.40;;;;;;;19.10;79.69;100256.73;125882;1092;22828;-57
2021/07/17 02:23:14;;;;;;;25.43;15.00;;;;;;;19.08;79.35;100259.34;125888;1093;27183;-60
2021/07/17 02:25:46;;;;;;;25.70;13.73;;;;;;;19.05;79.20;100269.69;125879;1093;22812;-57
2021/07/17 02:28:17;;;;;;;22.13;12.60;;;;;;;19.01;79.40;100259.98;125863;1093;22846;-57
2021/07/17 02:30:52;;;;;;;24.55;13.30;;;;;;;18.98;79.03;100263.87;125844;1093;25877;-60
2021/07/17 02:33:23;;;;;;;26.70;13.47;;;;;;;18.96;79.28;100267.24;125850;1093;22778;-58
2021/07/17 02:35:54;;;;;;;26.83;14.83;;;;;;;18.95;79.69;100268.56;125820;1093;22777;-55
2021/07/17 02:38:26;;;;;;;24.63;15.58;;;;;;;18.92;79.81;100263.95;125787;1092;24474;-55
2021/07/17 02:40:57;;;;;;;26.28;14.65;;;;;;;18.90;79.91;100275.05;125713;1093;27307;-58
2021/07/17 02:43:29;;;;;;;23.63;14.20;;;;;;;18.89;79.70;100269.93;125732;1093;22973;-58
2021/07/17 02:46:01;;;;;;;23.17;12.73;;;;;;;18.88;80.00;100271.22;125788;1092;22800;-58
2021/07/17 02:48:33;;;;;;;26.47;12.63;;;;;;;18.87;79.75;100275.36;126010;1092;22775;-55
2021/07/17 02:51:04;;;;;;;23.15;13.30;;;;;;;18.84;79.58;100285.68;125822;1093;27298;-55
2021/07/17 02:53:36;;;;;;;27.03;13.20;;;;;;;18.82;79.61;100287.50;125822;1093;24474;-59
2021/07/17 02:56:08;;;;;;;25.33;12.98;;;;;;;18.81;79.50;100281.08;125940;1093;22803;-57
2021/07/17 02:58:39;;;;;;;26.58;13.25;;;;;;;18.79;79.62;100283.67;125937;1093;22790;-56
2021/07/17 03:01:12;;;;;;;24.63;12.47;;;;;;;18.78;79.51;100284.99;125892;1093;22820;-59
2021/07/17 03:03:52;;;;;;;20.33;11.43;;;;;;;18.77;79.75;100285.50;125859;1093;22753;-55
2021/07/17 03:06:23;;;;;;;25.53;13.50;;;;;;;18.76;79.88;100284.77;125847;1092;22797;-54
2021/07/17 03:08:54;;;;;;;25.23;12.40;;;;;;;18.76;80.00;100281.94;125948;1093;22800;-56
2021/07/17 03:11:26;;;;;;;23.28;12.33;;;;;;;18.76;79.99;100281.16;125992;1093;22824;-57
2021/07/17 03:13:58;;;;;;;25.90;13.13;;;;;;;18.74;79.78;100284.53;125883;1093;25883;-58
2021/07/17 03:16:30;;;;;;;24.65;12.38;;;;;;;18.74;79.96;100286.59;125861;1093;22783;-58
2021/07/17 03:19:04;;;;;;;26.43;13.20;;;;;;;18.73;79.88;100285.05;126030;1092;25878;-56
2021/07/17 03:21:36;;;;;;;20.90;10.90;;;;;;;18.73;80.09;100297.13;125939;1092;22779;-54
2021/07/17 03:24:07;;;;;;;23.07;11.47;;;;;;;18.74;79.85;100290.19;125826;1093;22804;-57
2021/07/17 03:29:14;;;;;;;19.03;10.57;;;;;;;18.72;80.08;100284.30;125942;1096;27189;-61
2021/07/17 03:31:46;;;;;;;20.15;10.68;;;;;;;18.71;79.93;100279.94;125771;1093;22770;-61
2021/07/17 03:34:18;;;;;;;22.10;10.98;;;;;;;18.71;80.09;100287.64;125707;1093;22763;-61
2021/07/17 03:36:51;;;;;;;19.63;10.30;;;;;;;18.69;80.29;100279.70;125847;1093;22803;-61
2021/07/17 03:39:23;;;;;;;20.33;10.70;;;;;;;18.70;79.83;100288.96;125860;1093;25954;-60
2021/07/17 03:41:55;;;;;;;24.83;11.93;;;;;;;18.72;80.17;100292.02;125637;1092;22767;-61
2021/07/17 03:44:27;;;;;;;22.33;11.53;;;;;;;18.73;80.09;100297.13;125806;1093;22925;-61
2021/07/17 03:47:00;;;;;;;20.37;10.83;;;;;;;18.75;80.71;100282.45;125762;1093;22835;-61
2021/07/17 03:49:31;;;;;;;23.73;11.93;;;;;;;18.74;80.82;100281.70;125891;1092;22797;-61
2021/07/17 03:52:04;;;;;;;21.15;11.75;;;;;;;18.76;80.89;100283.99;125664;1092;25571;-61
2021/07/17 03:54:36;;;;;;;21.43;11.07;;;;;;;18.75;80.56;100277.56;125792;1093;22784;-61
2021/07/17 03:57:08;;;;;;;23.63;13.25;;;;;;;18.77;81.02;100288.33;125766;1093;22767;-61
2021/07/17 03:59:40;;;;;;;22.20;13.87;;;;;;;18.79;81.18;100280.11;125754;1093;22828;-61
2021/07/17 04:02:12;;;;;;;24.78;13.70;;;;;;;18.82;81.22;100270.53;125817;1093;22777;-61
2021/07/17 04:04:45;;;;;;;24.73;14.23;;;;;;;18.85;81.49;100270.22;125720;1093;22785;-61
2021/07/17 04:07:16;;;;;;;21.40;12.55;;;;;;;18.91;81.58;100270.91;125572;1093;22768;-61
2021/07/17 04:09:50;;;;;;;26.57;12.47;;;;;;;18.96;81.58;100269.30;125827;1095;22791;-61
2021/07/17 04:12:22;;;;;;;27.18;14.20;;;;;;;19.00;81.61;100267.70;125654;1093;22958;-61
2021/07/17 04:14:54;;;;;;;28.97;14.07;;;;;;;19.04;81.67;100273.80;125678;1093;22770;-61
2021/07/17 04:17:25;;;;;;;24.50;14.47;;;;;;;19.10;82.01;100260.34;125675;1093;22934;-61
2021/07/17 04:19:57;;;;;;;27.60;15.27;;;;;;;19.14;82.45;100245.89;125670;1093;22797;-61
2021/07/17 04:22:28;;;;;;;27.18;14.63;;;;;;;19.18;82.76;100260.49;125667;1093;22789;-61
2021/07/17 04:24:59;;;;;;;23.58;14.15;;;;;;;19.22;82.90;100252.45;125718;1093;23290;-61
2021/07/17 04:27:31;;;;;;;23.02;11.58;;;;;;;19.27;83.33;100252.36;125612;1092;25874;-61
2021/07/17 04:30:03;;;;;;;23.53;12.75;;;;;;;19.33;83.24;100247.39;125634;1093;22816;-61
2021/07/17 04:32:34;;;;;;;23.65;11.98;;;;;;;19.39;83.37;100250.13;125683;1093;22808;-61
2021/07/17 04:35:07;;;;;;;26.07;12.17;;;;;;;19.46;83.44;100243.06;125759;1093;23257;-61
2021/07/17 04:37:39;;;;;;;23.35;11.60;;;;;;;19.52;83.24;100243.73;125730;1093;22829;-61
2021/07/17 04:40:12;;;;;;;23.25;11.70;;;;;;;19.58;83.11;100242.34;125766;1092;22828;-61
2021/07/17 04:42:44;;;;;;;20.80;10.08;;;;;;;19.66;82.93;100240.38;125816;1092;23238;-61
2021/07/17 04:45:16;;;;;;;20.05;10.13;;;;;;;19.75;83.16;100239.97;125651;1093;22793;-61
2021/07/17 04:47:47;;;;;;;23.45;10.68;;;;;;;19.82;82.95;100241.41;125616;1093;27333;-61
2021/07/17 04:50:19;;;;;;;17.90;9.50;;;;;;;19.87;82.84;100244.13;125584;1092;22793;-61
2021/07/17 04:52:50;;;;;;;17.10;9.18;;;;;;;19.93;82.72;100247.61;125647;1093;28283;-61
2021/07/17 04:55:22;;;;;;;19.33;9.37;;;;;;;19.97;82.73;100256.55;125740;1093;22797;-61
2021/07/17 04:57:55;;;;;;;22.98;9.50;;;;;;;20.02;82.59;100250.02;125758;1093;25396;-61
2021/07/17 05:00:26;;;;;;;18.53;9.05;;;;;;;20.10;82.91;100253.73;125656;1093;22797;-62
2021/07/17 05:02:59;;;;;;;22.00;9.50;;;;;;;20.20;82.67;100258.97;125626;1093;22771;-61
2021/07/17 05:05:30;;;;;;;17.00;8.93;;;;;;;20.28;82.41;100265.53;127205;1093;22800;-62
2021/07/17 05:08:03;;;;;;;18.45;8.53;;;;;;;20.33;82.16;100261.81;125910;1093;22828;-60
2021/07/17 05:10:35;;;;;;;19.25;8.95;;;;;;;20.37;82.11;100256.56;125865;1093;22777;-60
2021/07/17 05:13:14;;;;;;;19.00;9.20;;;;;;;20.41;82.15;100251.33;125789;1093;22784;-62
2021/07/17 05:15:46;;;;;;;21.77;10.88;;;;;;;20.45;82.14;100252.53;125880;1093;25593;-62
2021/07/17 05:18:18;;;;;;;17.95;9.98;;;;;;;20.48;81.97;100259.95;125855;1093;22842;-62
2021/07/17 05:20:50;;;;;;;18.85;9.85;;;;;;;20.51;81.66;100258.84;125734;1093;24586;-62
2021/07/17 05:23:21;;;;;;;22.78;10.03;;;;;;;20.54;81.94;100256.98;125898;1093;22787;-62
2021/07/17 05:25:53;;;;;;;18.90;8.97;;;;;;;20.60;81.68;100263.30;125593;1093;22947;-62
2021/07/17 05:28:24;;;;;;;18.15;8.25;;;;;;;20.69;81.81;100262.86;125673;1092;27553;-62
2021/07/17 05:30:56;;;;;;;17.00;8.58;;;;;;;20.75;81.62;100266.34;125619;1093;22793;-62
2021/07/17 05:33:27;;;;;;;17.65;7.85;;;;;;;20.83;81.66;100270.02;125828;1093;22851;-62
2021/07/17 05:35:59;;;;;;;17.87;8.33;;;;;;;20.84;81.10;100263.79;125753;1093;26229;-62
2021/07/17 05:38:30;;;;;;;15.98;8.40;;;;;;;20.88;81.58;100266.28;125752;1093;24277;-62
2021/07/17 05:41:01;;;;;;;20.50;9.33;;;;;;;20.91;81.41;100276.55;125710;1092;23308;-62
2021/07/17 05:43:33;;;;;;;18.13;8.35;;;;;;;20.95;81.62;100272.06;125658;1093;23200;-62
2021/07/17 05:46:04;;;;;;;18.65;9.08;;;;;;;21.02;81.46;100264.98;125686;1093;22774;-62
2021/07/17 05:48:38;;;;;;;25.28;9.18;;;;;;;21.11;81.47;100261.66;125700;1093;25854;-62
2021/07/17 05:51:09;;;;;;;16.70;8.65;;;;;;;21.23;81.34;100271.42;125686;1093;22767;-64
2021/07/17 05:53:41;;;;;;;17.53;8.50;;;;;;;21.33;80.95;100268.89;125644;1093;24212;-63
2021/07/17 05:56:12;;;;;;;20.52;9.10;;;;;;;21.34;81.16;100264.72;125792;1093;22783;-64
2021/07/17 05:58:44;;;;;;;20.48;8.65;;;;;;;21.38;81.25;100273.65;125707;1093;26239;-63
2021/07/17 06:01:15;;;;;;;17.30;8.03;;;;;;;21.44;81.13;100271.44;125849;1093;22823;-64
2021/07/17 06:03:47;;;;;;;16.60;6.87;;;;;;;21.53;80.93;100279.48;125675;1094;22794;-63
2021/07/17 06:06:18;;;;;;;16.08;6.48;;;;;;;21.58;80.77;100276.49;125806;1093;22776;-64
2021/07/17 06:08:50;;;;;;;15.33;6.55;;;;;;;21.63;80.58;100278.44;125674;1093;22797;-61
2021/07/17 06:11:21;;;;;;;14.50;7.03;;;;;;;21.69;80.36;100281.90;125739;1092;23297;-64
2021/07/17 06:13:52;;;;;;;19.95;7.55;;;;;;;21.70;80.47;100277.72;125621;1093;22775;-64
2021/07/17 06:16:24;;;;;;;14.80;7.15;;;;;;;21.74;80.26;100283.84;125656;1093;22771;-63
2021/07/17 06:18:55;;;;;;;14.83;7.90;;;;;;;21.79;79.99;100282.16;125765;1093;24433;-64
2021/07/17 06:21:27;;;;;;;16.10;7.50;;;;;;;21.84;80.28;100286.20;125665;1093;22864;-64
2021/07/17 06:23:58;;;;;;;14.73;7.47;;;;;;;21.93;79.77;100288.56;125625;1092;24468;-63
2021/07/17 06:26:29;;;;;;;15.70;7.55;;;;;;;21.92;79.46;100287.80;125544;1093;22797;-63
2021/07/17 06:29:01;;;;;;;17.65;7.58;;;;;;;21.88;79.73;100295.91;125619;1093;22767;-63
2021/07/17 06:31:32;;;;;;;17.43;7.23;;;;;;;21.87;79.42;100297.22;125657;1093;22773;-63
2021/07/17 06:34:05;;;;;;;18.95;7.90;;;;;;;21.90;79.64;100298.19;125677;1093;27068;-63
2021/07/17 06:36:37;;;;;;;17.83;8.48;;;;;;;21.93;79.25;100297.86;125708;1093;26514;-63
2021/07/17 06:39:09;;;;;;;15.55;7.65;;;;;;;21.96;79.44;100305.25;125774;1093;22762;-64
2021/07/17 06:41:43;;;;;;;17.38;8.05;;;;;;;21.98;79.45;100301.84;125627;1093;22776;-63
2021/07/17 06:44:14;;;;;;;20.17;7.47;;;;;;;21.98;79.25;100313.98;125665;1093;22904;-64
2021/07/17 06:46:45;;;;;;;15.35;7.15;;;;;;;21.99;79.24;100312.69;125609;1093;24595;-64
2021/07/17 06:49:17;;;;;;;15.05;7.73;;;;;;;22.00;79.17;100308.50;125618;1092;22794;-64
2021/07/17 06:51:48;;;;;;;16.55;7.95;;;;;;;21.97;79.16;100308.87;125726;1093;22775;-64
2021/07/17 06:54:20;;;;;;;17.68;7.43;;;;;;;21.96;79.03;100313.02;125534;1092;22759;-64
2021/07/17 06:56:51;;;;;;;19.63;7.98;;;;;;;21.95;78.80;100315.12;125581;1093;23481;-64
2021/07/17 06:59:22;;;;;;;15.27;7.33;;;;;;;21.92;78.93;100316.22;125574;1093;22853;-62
2021/07/17 07:01:54;;;;;;;17.78;7.68;;;;;;;21.91;78.94;100314.70;125572;1092;22801;-63
2021/07/17 07:04:26;;;;;;;23.33;8.10;;;;;;;21.96;79.09;100325.16;125696;1093;27198;-64
2021/07/17 07:06:57;;;;;;;17.85;7.63;;;;;;;21.98;78.55;100324.59;125792;1093;27189;-64
2021/07/17 07:09:29;;;;;;;17.25;8.70;;;;;;;22.04;78.51;100322.36;125640;1093;23175;-63
2021/07/17 07:12:00;;;;;;;18.53;8.25;;;;;;;22.06;78.30;100331.86;125645;1093;22797;-64
2021/07/17 07:14:32;;;;;;;24.13;7.60;;;;;;;22.05;78.38;100323.90;125638;1093;22825;-62
2021/07/17 07:17:03;;;;;;;18.63;8.25;;;;;;;22.08;78.42;100326.38;125633;1093;24468;-63
2021/07/17 07:19:35;;;;;;;14.50;7.40;;;;;;;22.15;78.63;100322.84;125654;1092;22816;-63
2021/07/17 07:22:07;;;;;;;17.33;6.98;;;;;;;22.23;78.67;100328.57;125738;1093;25836;-64
2021/07/17 07:24:38;;;;;;;19.38;8.55;;;;;;;22.31;78.24;100327.30;125592;1093;24490;-63
2021/07/17 07:27:09;;;;;;;16.77;7.40;;;;;;;22.36;78.34;100322.79;125598;1092;27165;-65
2021/07/17 07:29:41;;;;;;;17.73;8.33;;;;;;;22.45;78.12;100316.59;125560;1092;22797;-63
2021/07/17 07:32:13;;;;;;;17.50;8.40;;;;;;;22.55;78.10;100318.34;125469;1093;22861;-64
2021/07/17 07:34:44;;;;;;;20.70;10.17;;;;;;;22.61;77.77;100314.61;125610;1094;22764;-65
2021/07/17 07:37:16;;;;;;;15.15;8.00;;;;;;;22.66;77.60;100305.17;125480;1093;27346;-63
2021/07/17 07:39:47;;;;;;;19.78;7.05;;;;;;;22.75;77.42;100304.63;125629;1093;22826;-63
2021/07/17 07:42:18;;;;;;;18.08;7.40;;;;;;;22.82;77.23;100304.67;125595;1093;22767;-62
2021/07/17 07:44:49;;;;;;;17.20;7.00;;;;;;;22.88;77.60;100298.80;125647;1092;22780;-64
2021/07/17 07:47:23;;;;;;;15.80;7.48;;;;;;;22.92;77.22;100297.12;125629;1093;22938;-63
2021/07/17 07:49:56;;;;;;;15.95;7.15;;;;;;;22.96;76.95;100297.51;125689;1093;27163;-63
2021/07/17 07:52:29;;;;;;;18.43;6.57;;;;;;;23.03;76.55;100302.45;125664;1093;22797;-63
2021/07/17 07:55:00;;;;;;;18.50;6.83;;;;;;;23.10;76.40;100301.72;125694;1092;22790;-63
2021/07/17 07:57:33;;;;;;;16.20;6.68;;;;;;;23.15;76.13;100300.77;125524;1093;24430;-65
2021/07/17 08:00:05;;;;;;;15.05;7.20;;;;;;;23.27;75.58;100299.12;125708;1095;22848;-64
2021/07/17 08:02:37;;;;;;;19.60;6.75;;;;;;;23.37;75.99;100296.50;125740;1096;22810;-60
2021/07/17 08:05:10;;;;;;;14.10;5.73;;;;;;;23.51;75.72;100299.92;125482;1096;27197;-62
2021/07/17 08:07:41;;;;;;;20.53;7.60;;;;;;;23.62;75.50;100293.86;125716;1094;22765;-67
2021/07/17 08:10:14;;;;;;;15.28;5.90;;;;;;;23.72;75.31;100297.66;125550;1096;22794;-65
2021/07/17 08:12:45;;;;;;;17.93;6.45;;;;;;;23.78;74.57;100296.16;125921;1096;23460;-65
2021/07/17 08:15:17;;;;;;;14.28;6.50;;;;;;;23.87;74.36;100287.04;125557;1095;22764;-65
2021/07/17 08:17:49;;;;;;;14.63;6.60;;;;;;;23.99;74.32;100291.02;125747;1095;24298;-65
2021/07/17 08:20:20;;;;;;;14.65;6.03;;;;;;;24.11;73.71;100296.37;125616;1095;22803;-65
2021/07/17 08:22:52;;;;;;;16.05;6.90;;;;;;;24.14;73.83;100293.13;125695;1096;22844;-65
2021/07/17 08:25:24;;;;;;;17.68;6.43;;;;;;;24.17;73.17;100302.63;125617;1096;22800;-64
2021/07/17 08:27:55;;;;;;;16.60;7.03;;;;;;;24.13;73.05;100300.14;125576;1096;22783;-66
2021/07/17 08:30:26;;;;;;;17.58;6.90;;;;;;;24.13;73.10;100299.41;125532;1096;22825;-66
2021/07/17 08:32:58;;;;;;;12.38;5.05;;;;;;;24.14;72.17;100303.77;125788;1095;22815;-65
2021/07/17 08:35:29;;;;;;;16.83;6.70;;;;;;;24.16;72.55;100299.02;125622;1096;27683;-65
2021/07/17 08:38:02;;;;;;;15.38;6.58;;;;;;;24.21;72.42;100298.04;125502;1096;22763;-65
2021/07/17 08:40:36;;;;;;;15.90;5.93;;;;;;;24.25;72.62;100298.41;125446;1096;22797;-66
2021/07/17 08:43:08;;;;;;;14.05;6.43;;;;;;;24.37;72.16;100313.05;125456;1096;22775;-65
2021/07/17 08:45:40;;;;;;;14.13;5.75;;;;;;;24.43;71.91;100302.95;125521;1095;27188;-65
2021/07/17 08:48:12;;;;;;;13.10;6.30;;;;;;;24.47;71.38;100305.41;125614;1095;24478;-65
2021/07/17 08:50:44;;;;;;;14.88;6.48;;;;;;;24.47;71.36;100309.03;125569;1095;22774;-65
2021/07/17 08:53:19;;;;;;;13.77;5.27;;;;;;;24.49;71.17;100297.80;125599;1096;22779;-65
2021/07/17 08:55:50;;;;;;;14.95;6.15;;;;;;;24.52;71.33;100299.49;125527;1095;22927;-65
2021/07/17 08:58:22;;;;;;;14.48;6.05;;;;;;;24.55;71.12;100291.88;125535;1095;22800;-66
2021/07/17 09:00:54;;;;;;;11.75;4.93;;;;;;;24.54;70.71;100296.81;125694;1096;24440;-65
2021/07/17 09:03:25;;;;;;;13.00;3.95;;;;;;;24.57;70.50;100294.91;125582;1097;22794;-65
2021/07/17 09:05:57;;;;;;;16.13;5.70;;;;;;;24.65;70.61;100295.64;125650;1096;22806;-67
2021/07/17 09:08:28;;;;;;;12.67;4.90;;;;;;;24.71;69.52;100285.54;125487;1096;22777;-65
2021/07/17 09:10:59;;;;;;;13.85;4.48;;;;;;;24.77;69.86;100286.11;125434;1096;25424;-65
2021/07/17 09:13:32;;;;;;;8.87;3.90;;;;;;;24.87;68.80;100284.16;125497;1096;22794;-67
2021/07/17 09:16:06;;;;;;;12.83;4.63;;;;;;;24.97;69.16;100284.32;125646;1096;22778;-64
2021/07/17 09:18:46;;;;;;;10.58;4.08;;;;;;;24.97;69.07;100287.18;125671;1096;22791;-64
2021/07/17 09:21:25;;;;;;;12.28;4.25;;;;;;;24.92;68.60;100284.52;125632;1095;22762;-64
2021/07/17 09:24:00;;;;;;;12.88;4.55;;;;;;;24.82;68.20;100292.95;125483;1096;23054;-64
2021/07/17 09:26:33;;;;;;;15.23;4.90;;;;;;;24.74;68.27;100290.14;126364;1096;22864;-63
2021/07/17 09:29:07;;;;;;;13.18;4.83;;;;;;;24.69;68.25;100291.06;125589;1096;22803;-63
2021/07/17 09:31:53;;;;;;;9.40;4.28;;;;;;;24.65;67.89;100289.94;125588;1096;26251;-63
2021/07/17 09:34:27;;;;;;;11.30;4.85;;;;;;;24.60;67.85;100285.21;125579;1095;22774;-63
2021/07/17 09:37:01;;;;;;;10.53;4.53;;;;;;;24.59;67.86;100284.45;125550;1096;22779;-63
2021/07/17 09:39:34;;;;;;;12.68;5.43;;;;;;;24.58;67.92;100282.17;125577;1096;22793;-63
2021/07/17 09:42:07;;;;;;;13.80;5.10;;;;;;;24.61;68.04;100283.86;125558;1095;22942;-63
2021/07/17 09:44:39;;;;;;;13.15;5.38;;;;;;;24.67;68.30;100270.91;125649;1096;22794;-63
2021/07/17 09:47:19;;;;;;;16.00;5.58;;;;;;;24.67;67.33;100270.14;125560;1095;22807;-63
2021/07/17 09:50:11;;;;;;;14.25;5.00;;;;;;;24.70;67.77;100277.56;125667;1096;22767;-63
2021/07/17 09:52:46;;;;;;;11.33;4.75;;;;;;;24.79;67.40;100276.96;125533;1097;22804;-63
2021/07/17 09:55:18;;;;;;;10.73;4.48;;;;;;;24.91;67.62;100265.88;125684;1096;22767;-63
2021/07/17 09:57:50;;;;;;;11.57;4.67;;;;;;;25.05;67.75;100273.61;125704;1096;27188;-63
2021/07/17 10:00:24;;;;;;;11.95;4.48;;;;;;;25.20;66.71;100281.34;125489;1096;24438;-63
2021/07/17 10:02:56;;;;;;;13.88;4.58;;;;;;;25.26;65.99;100276.16;125546;1096;25639;-63
2021/07/17 10:05:40;;;;;;;13.55;4.60;;;;;;;25.23;66.09;100280.16;125670;1096;22773;-62
2021/07/17 10:08:13;;;;;;;11.53;4.53;;;;;;;25.26;65.96;100279.02;125556;1096;22979;-62
2021/07/17 10:10:45;;;;;;;10.13;3.65;;;;;;;25.29;65.19;100272.89;125703;1096;22857;-62
2021/07/17 10:13:28;;;;;;;8.83;3.43;;;;;;;25.33;65.52;100278.19;125515;1096;22800;-62
2021/07/17 10:16:00;;;;;;;12.75;4.15;;;;;;;25.41;65.75;100278.95;125565;1096;24433;-62
2021/07/17 10:18:32;;;;;;;12.50;3.80;;;;;;;25.45;64.74;100282.16;125600;1097;22769;-62
2021/07/17 10:21:03;;;;;;;11.33;4.78;;;;;;;25.40;64.48;100275.30;125568;1096;25842;-63
2021/07/17 10:23:35;;;;;;;9.35;3.75;;;;;;;25.39;64.40;100281.58;125612;1096;24481;-63
2021/07/17 10:26:07;;;;;;;11.50;4.20;;;;;;;25.40;64.63;100278.16;125656;1096;23492;-62
2021/07/17 10:28:39;;;;;;;13.17;4.97;;;;;;;25.46;64.71;100280.80;125780;1096;27173;-63
2021/07/17 10:31:10;;;;;;;11.73;5.18;;;;;;;25.49;64.32;100271.81;125621;1096;22800;-63
2021/07/17 10:33:42;;;;;;;11.65;3.50;;;;;;;25.55;64.38;100271.60;125684;1096;24436;-62
2021/07/17 10:36:18;;;;;;;9.95;4.23;;;;;;;25.65;64.34;100275.33;125469;1096;25868;-62
2021/07/17 10:38:55;;;;;;;11.58;3.83;;;;;;;25.72;63.66;100270.90;125808;1096;25860;-62
2021/07/17 10:41:28;;;;;;;10.40;3.60;;;;;;;25.79;63.75;100265.10;125557;1096;22863;-62
2021/07/17 10:43:59;;;;;;;12.58;4.20;;;;;;;25.87;63.26;100260.07;125537;1096;22773;-62
2021/07/17 10:46:34;;;;;;;14.93;4.48;;;;;;;25.92;63.42;100259.08;125509;1095;22792;-62
2021/07/17 10:49:09;;;;;;;12.25;4.15;;;;;;;25.95;62.98;100263.61;125608;1095;24483;-62
2021/07/17 10:51:42;;;;;;;12.98;3.98;;;;;;;25.92;63.25;100261.95;125667;1096;22778;-62
2021/07/17 10:54:28;;;;;;;9.18;4.18;;;;;;;25.93;62.94;100254.86;125752;1096;22845;-62
2021/07/17 10:57:00;;;;;;;9.90;3.83;;;;;;;26.01;63.00;100266.25;125558;1095;26379;-63
2021/07/17 10:59:48;;;;;;;13.55;4.03;;;;;;;26.08;62.68;100259.71;125664;1096;26245;-63
2021/07/17 11:02:24;;;;;;;9.87;3.63;;;;;;;26.13;62.18;100255.86;127434;1096;27775;-61
2021/07/17 11:05:01;;;;;;;12.63;3.88;;;;;;;26.15;62.20;100245.34;125648;1095;22934;-64
2021/07/17 11:07:36;;;;;;;12.70;4.03;;;;;;;26.19;62.37;100242.82;125608;1096;23502;-63
2021/07/17 11:10:22;;;;;;;12.28;3.75;;;;;;;26.24;61.49;100244.66;125643;1095;23039;-61
2021/07/17 11:13:02;;;;;;;9.80;3.93;;;;;;;26.33;61.90;100238.27;125998;1096;23356;-61
2021/07/17 11:15:49;;;;;;;10.80;3.90;;;;;;;26.42;61.76;100231.84;126367;1094;23302;-60
2021/07/17 11:18:42;;;;;;;13.57;3.67;;;;;;;26.50;61.50;100237.50;129571;1095;22609;-60
2021/07/17 11:21:24;;;;;;;13.83;4.55;;;;;;;26.52;61.21;100231.94;125727;1096;26657;-59
2021/07/17 11:24:08;;;;;;;10.63;4.05;;;;;;;26.54;61.00;100232.11;125735;1096;25973;-60
2021/07/17 11:26:42;;;;;;;11.80;3.95;;;;;;;26.58;60.71;100225.95;125841;1096;24474;-59
2021/07/17 11:29:15;;;;;;;11.10;3.77;;;;;;;26.64;60.66;100220.72;125868;1096;22800;-60
2021/07/17 11:31:56;;;;;;;10.50;3.63;;;;;;;26.68;60.43;100218.94;125693;1095;22803;-62
2021/07/17 11:34:40;;;;;;;9.95;3.28;;;;;;;26.72;60.22;100219.30;125802;1096;25574;-61